sensor_id;sensor_type;location;lat;lon;timestamp;P1;durP1;ratioP1;P2;durP2;ratioP2
1082;SDS011;530;51.448;7.238;2023-10-31T00:00:38;4.60;;;4.10;;
1082;SDS011;530;51.448;7.238;2023-10-31T00:03:04;4.40;;;4.10;;
1082;SDS011;530;51.448;7.238;2023-10-31T00:05:29;4.30;;;4.00;;
1082;SDS011;530;51.448;7.238;2023-10-31T00:07:55;4.07;;;3.77;;
1082;SDS011;530;51.448;7.238;2023-10-31T00:10:21;4.10;;;3.63;;
1082;SDS011;530;51.448;7.238;2023-10-31T00:12:46;4.50;;;4.20;;
1082;SDS011;530;51.448;7.238;2023-10-31T00:15:13;4.50;;;4.10;;
1082;SDS011;530;51.448;7.238;2023-10-31T00:17:38;4.50;;;4.20;;
1082;SDS011;530;51.448;7.238;2023-10-31T00:20:04;4.40;;;4.00;;
1082;SDS011;530;51.448;7.238;2023-10-31T00:22:31;4.40;;;4.00;;
1082;SDS011;530;51.448;7.238;2023-10-31T00:24:56;4.67;;;4.27;;
1082;SDS011;530;51.448;7.238;2023-10-31T00:27:22;4.50;;;4.10;;
1082;SDS011;530;51.448;7.238;2023-10-31T00:29:48;4.70;;;4.30;;
1082;SDS011;530;51.448;7.238;2023-10-31T00:32:14;4.73;;;4.33;;
1082;SDS011;530;51.448;7.238;2023-10-31T00:34:39;7.20;;;5.03;;
1082;SDS011;530;51.448;7.238;2023-10-31T00:37:05;5.00;;;4.50;;
1082;SDS011;530;51.448;7.238;2023-10-31T00:39:30;5.00;;;4.60;;
1082;SDS011;530;51.448;7.238;2023-10-31T00:41:58;4.33;;;3.67;;
1082;SDS011;530;51.448;7.238;2023-10-31T00:44:24;3.47;;;3.27;;
1082;SDS011;530;51.448;7.238;2023-10-31T00:46:49;3.93;;;3.63;;
1082;SDS011;530;51.448;7.238;2023-10-31T00:49:15;3.83;;;3.53;;
1082;SDS011;530;51.448;7.238;2023-10-31T00:51:41;4.97;;;4.50;;
1082;SDS011;530;51.448;7.238;2023-10-31T00:54:06;5.00;;;4.60;;
1082;SDS011;530;51.448;7.238;2023-10-31T00:56:32;4.60;;;4.20;;
1082;SDS011;530;51.448;7.238;2023-10-31T00:58:58;4.50;;;4.20;;
1082;SDS011;530;51.448;7.238;2023-10-31T01:01:23;4.47;;;4.07;;
1082;SDS011;530;51.448;7.238;2023-10-31T01:03:49;3.40;;;3.10;;
1082;SDS011;530;51.448;7.238;2023-10-31T01:06:15;2.80;;;2.60;;
1082;SDS011;530;51.448;7.238;2023-10-31T01:08:40;2.37;;;2.27;;
1082;SDS011;530;51.448;7.238;2023-10-31T01:11:06;3.17;;;2.53;;
1082;SDS011;530;51.448;7.238;2023-10-31T01:13:32;3.27;;;2.27;;
1082;SDS011;530;51.448;7.238;2023-10-31T01:15:57;2.27;;;2.17;;
1082;SDS011;530;51.448;7.238;2023-10-31T01:18:23;2.83;;;2.50;;
1082;SDS011;530;51.448;7.238;2023-10-31T01:20:48;2.00;;;1.80;;
1082;SDS011;530;51.448;7.238;2023-10-31T01:23:14;2.43;;;1.87;;
1082;SDS011;530;51.448;7.238;2023-10-31T01:25:40;2.10;;;1.93;;
1082;SDS011;530;51.448;7.238;2023-10-31T01:28:05;2.10;;;1.90;;
1082;SDS011;530;51.448;7.238;2023-10-31T01:30:31;2.23;;;2.10;;
1082;SDS011;530;51.448;7.238;2023-10-31T01:32:57;2.07;;;1.70;;
1082;SDS011;530;51.448;7.238;2023-10-31T01:35:23;2.40;;;2.20;;
1082;SDS011;530;51.448;7.238;2023-10-31T01:37:48;2.47;;;2.10;;
1082;SDS011;530;51.448;7.238;2023-10-31T01:40:14;2.43;;;2.23;;
1082;SDS011;530;51.448;7.238;2023-10-31T01:42:40;5.63;;;1.97;;
1082;SDS011;530;51.448;7.238;2023-10-31T01:45:06;2.90;;;2.30;;
1082;SDS011;530;51.448;7.238;2023-10-31T01:47:32;3.70;;;3.00;;
1082;SDS011;530;51.448;7.238;2023-10-31T01:49:58;3.53;;;3.23;;
1082;SDS011;530;51.448;7.238;2023-10-31T01:52:24;4.33;;;3.90;;
1082;SDS011;530;51.448;7.238;2023-10-31T01:54:51;6.67;;;4.90;;
1082;SDS011;530;51.448;7.238;2023-10-31T01:57:18;6.47;;;5.23;;
1082;SDS011;530;51.448;7.238;2023-10-31T01:59:46;4.23;;;3.93;;
1082;SDS011;530;51.448;7.238;2023-10-31T02:02:11;3.73;;;3.40;;
1082;SDS011;530;51.448;7.238;2023-10-31T02:04:37;5.77;;;5.23;;
1082;SDS011;530;51.448;7.238;2023-10-31T02:07:03;5.77;;;5.27;;
1082;SDS011;530;51.448;7.238;2023-10-31T02:09:28;5.37;;;4.93;;
1082;SDS011;530;51.448;7.238;2023-10-31T02:11:55;5.43;;;4.93;;
1082;SDS011;530;51.448;7.238;2023-10-31T02:14:24;5.50;;;4.90;;
1082;SDS011;530;51.448;7.238;2023-10-31T02:16:50;4.97;;;4.53;;
1082;SDS011;530;51.448;7.238;2023-10-31T02:19:18;6.03;;;5.53;;
1082;SDS011;530;51.448;7.238;2023-10-31T02:21:45;4.93;;;4.50;;
1082;SDS011;530;51.448;7.238;2023-10-31T02:24:11;5.30;;;4.80;;
1082;SDS011;530;51.448;7.238;2023-10-31T02:26:37;6.00;;;5.50;;
1082;SDS011;530;51.448;7.238;2023-10-31T02:29:02;5.37;;;4.97;;
1082;SDS011;530;51.448;7.238;2023-10-31T02:31:29;5.43;;;4.33;;
1082;SDS011;530;51.448;7.238;2023-10-31T02:33:55;5.10;;;4.53;;
1082;SDS011;530;51.448;7.238;2023-10-31T02:36:21;4.40;;;4.00;;
1082;SDS011;530;51.448;7.238;2023-10-31T02:38:46;4.97;;;4.47;;
1082;SDS011;530;51.448;7.238;2023-10-31T02:41:12;4.60;;;4.20;;
1082;SDS011;530;51.448;7.238;2023-10-31T02:43:38;4.27;;;3.80;;
1082;SDS011;530;51.448;7.238;2023-10-31T02:46:05;4.70;;;4.30;;
1082;SDS011;530;51.448;7.238;2023-10-31T02:48:31;3.67;;;3.37;;
1082;SDS011;530;51.448;7.238;2023-10-31T02:51:03;3.87;;;3.53;;
1082;SDS011;530;51.448;7.238;2023-10-31T02:53:29;3.30;;;3.00;;
1082;SDS011;530;51.448;7.238;2023-10-31T02:55:55;3.37;;;3.17;;
1082;SDS011;530;51.448;7.238;2023-10-31T02:58:21;3.40;;;3.17;;
1082;SDS011;530;51.448;7.238;2023-10-31T03:00:47;3.40;;;3.20;;
1082;SDS011;530;51.448;7.238;2023-10-31T03:03:13;3.27;;;3.03;;
1082;SDS011;530;51.448;7.238;2023-10-31T03:05:38;4.20;;;3.80;;
1082;SDS011;530;51.448;7.238;2023-10-31T03:08:04;5.03;;;4.20;;
1082;SDS011;530;51.448;7.238;2023-10-31T03:10:30;6.70;;;5.17;;
1082;SDS011;530;51.448;7.238;2023-10-31T03:12:55;5.73;;;5.23;;
1082;SDS011;530;51.448;7.238;2023-10-31T03:15:21;6.03;;;4.97;;
1082;SDS011;530;51.448;7.238;2023-10-31T03:17:47;7.23;;;5.90;;
1082;SDS011;530;51.448;7.238;2023-10-31T03:20:12;10.43;;;5.77;;
1082;SDS011;530;51.448;7.238;2023-10-31T03:22:38;7.83;;;5.77;;
1082;SDS011;530;51.448;7.238;2023-10-31T03:25:04;8.97;;;6.07;;
1082;SDS011;530;51.448;7.238;2023-10-31T03:27:30;8.40;;;6.17;;
1082;SDS011;530;51.448;7.238;2023-10-31T03:29:56;6.40;;;5.80;;
1082;SDS011;530;51.448;7.238;2023-10-31T03:32:21;7.53;;;5.97;;
1082;SDS011;530;51.448;7.238;2023-10-31T03:34:47;6.90;;;6.20;;
1082;SDS011;530;51.448;7.238;2023-10-31T03:37:13;7.43;;;6.73;;
1082;SDS011;530;51.448;7.238;2023-10-31T03:39:38;8.17;;;6.73;;
1082;SDS011;530;51.448;7.238;2023-10-31T03:42:04;7.00;;;6.37;;
1082;SDS011;530;51.448;7.238;2023-10-31T03:44:30;6.53;;;5.80;;
1082;SDS011;530;51.448;7.238;2023-10-31T03:46:56;9.90;;;6.90;;
1082;SDS011;530;51.448;7.238;2023-10-31T03:49:22;7.17;;;6.20;;
1082;SDS011;530;51.448;7.238;2023-10-31T03:51:47;7.67;;;6.10;;
1082;SDS011;530;51.448;7.238;2023-10-31T03:54:13;6.20;;;5.60;;
1082;SDS011;530;51.448;7.238;2023-10-31T03:56:42;7.47;;;5.70;;
1082;SDS011;530;51.448;7.238;2023-10-31T03:59:09;7.80;;;5.87;;
1082;SDS011;530;51.448;7.238;2023-10-31T04:01:34;7.37;;;6.00;;
1082;SDS011;530;51.448;7.238;2023-10-31T04:04:00;6.17;;;5.57;;
1082;SDS011;530;51.448;7.238;2023-10-31T04:06:26;6.23;;;5.20;;
1082;SDS011;530;51.448;7.238;2023-10-31T04:08:52;6.20;;;4.50;;
1082;SDS011;530;51.448;7.238;2023-10-31T04:11:18;6.97;;;5.30;;
1082;SDS011;530;51.448;7.238;2023-10-31T04:13:43;6.00;;;5.43;;
1082;SDS011;530;51.448;7.238;2023-10-31T04:16:09;6.07;;;5.23;;
1082;SDS011;530;51.448;7.238;2023-10-31T04:18:35;6.17;;;5.30;;
1082;SDS011;530;51.448;7.238;2023-10-31T04:21:01;9.03;;;5.93;;
1082;SDS011;530;51.448;7.238;2023-10-31T04:23:27;7.00;;;6.30;;
1082;SDS011;530;51.448;7.238;2023-10-31T04:25:53;8.10;;;5.90;;
1082;SDS011;530;51.448;7.238;2023-10-31T04:28:18;7.20;;;6.50;;
1082;SDS011;530;51.448;7.238;2023-10-31T04:30:44;7.00;;;5.80;;
1082;SDS011;530;51.448;7.238;2023-10-31T04:33:10;7.50;;;5.67;;
1082;SDS011;530;51.448;7.238;2023-10-31T04:35:35;7.03;;;5.47;;
1082;SDS011;530;51.448;7.238;2023-10-31T04:38:01;6.63;;;5.93;;
1082;SDS011;530;51.448;7.238;2023-10-31T04:40:27;6.53;;;5.93;;
1082;SDS011;530;51.448;7.238;2023-10-31T04:42:53;7.10;;;6.07;;
1082;SDS011;530;51.448;7.238;2023-10-31T04:45:19;7.13;;;6.43;;
1082;SDS011;530;51.448;7.238;2023-10-31T04:47:45;7.57;;;6.43;;
1082;SDS011;530;51.448;7.238;2023-10-31T04:50:11;6.77;;;5.87;;
1082;SDS011;530;51.448;7.238;2023-10-31T04:52:36;7.00;;;6.07;;
1082;SDS011;530;51.448;7.238;2023-10-31T04:55:02;6.47;;;5.53;;
1082;SDS011;530;51.448;7.238;2023-10-31T04:57:28;7.93;;;6.13;;
1082;SDS011;530;51.448;7.238;2023-10-31T04:59:53;7.87;;;5.50;;
1082;SDS011;530;51.448;7.238;2023-10-31T05:02:23;6.73;;;6.03;;
1082;SDS011;530;51.448;7.238;2023-10-31T05:04:48;5.83;;;5.33;;
1082;SDS011;530;51.448;7.238;2023-10-31T05:07:19;6.57;;;5.67;;
1082;SDS011;530;51.448;7.238;2023-10-31T05:09:44;6.47;;;5.80;;
1082;SDS011;530;51.448;7.238;2023-10-31T05:12:10;6.97;;;5.13;;
1082;SDS011;530;51.448;7.238;2023-10-31T05:14:36;4.93;;;4.43;;
1082;SDS011;530;51.448;7.238;2023-10-31T05:17:02;5.10;;;4.43;;
1082;SDS011;530;51.448;7.238;2023-10-31T05:19:28;5.40;;;4.90;;
1082;SDS011;530;51.448;7.238;2023-10-31T05:21:53;5.30;;;4.77;;
1082;SDS011;530;51.448;7.238;2023-10-31T05:24:19;5.33;;;4.83;;
1082;SDS011;530;51.448;7.238;2023-10-31T05:26:45;6.93;;;5.07;;
1082;SDS011;530;51.448;7.238;2023-10-31T05:29:11;6.10;;;5.00;;
1082;SDS011;530;51.448;7.238;2023-10-31T05:31:37;6.70;;;5.60;;
1082;SDS011;530;51.448;7.238;2023-10-31T05:34:03;5.50;;;5.00;;
1082;SDS011;530;51.448;7.238;2023-10-31T05:36:31;8.03;;;5.73;;
1082;SDS011;530;51.448;7.238;2023-10-31T05:38:57;6.53;;;5.90;;
1082;SDS011;530;51.448;7.238;2023-10-31T05:41:23;6.93;;;6.23;;
1082;SDS011;530;51.448;7.238;2023-10-31T05:43:49;6.87;;;6.20;;
1082;SDS011;530;51.448;7.238;2023-10-31T05:46:14;7.30;;;6.23;;
1082;SDS011;530;51.448;7.238;2023-10-31T05:48:41;8.33;;;7.30;;
1082;SDS011;530;51.448;7.238;2023-10-31T05:51:12;8.10;;;7.30;;
1082;SDS011;530;51.448;7.238;2023-10-31T05:53:39;9.37;;;7.23;;
1082;SDS011;530;51.448;7.238;2023-10-31T05:56:06;8.80;;;7.23;;
1082;SDS011;530;51.448;7.238;2023-10-31T05:58:32;10.30;;;8.00;;
1082;SDS011;530;51.448;7.238;2023-10-31T06:00:58;9.40;;;7.90;;
1082;SDS011;530;51.448;7.238;2023-10-31T06:03:24;9.40;;;8.43;;
1082;SDS011;530;51.448;7.238;2023-10-31T06:05:49;8.77;;;7.87;;
1082;SDS011;530;51.448;7.238;2023-10-31T06:08:15;8.80;;;7.90;;
1082;SDS011;530;51.448;7.238;2023-10-31T06:10:41;9.53;;;8.13;;
1082;SDS011;530;51.448;7.238;2023-10-31T06:13:06;9.93;;;8.10;;
1082;SDS011;530;51.448;7.238;2023-10-31T06:15:32;9.90;;;8.90;;
1082;SDS011;530;51.448;7.238;2023-10-31T06:17:58;9.67;;;8.67;;
1082;SDS011;530;51.448;7.238;2023-10-31T06:20:23;10.77;;;8.90;;
1082;SDS011;530;51.448;7.238;2023-10-31T06:22:49;10.63;;;9.20;;
1082;SDS011;530;51.448;7.238;2023-10-31T06:25:15;9.00;;;8.10;;
1082;SDS011;530;51.448;7.238;2023-10-31T06:27:40;11.70;;;8.80;;
1082;SDS011;530;51.448;7.238;2023-10-31T06:30:06;9.20;;;7.97;;
1082;SDS011;530;51.448;7.238;2023-10-31T06:32:32;10.43;;;9.33;;
1082;SDS011;530;51.448;7.238;2023-10-31T06:34:58;10.03;;;8.93;;
1082;SDS011;530;51.448;7.238;2023-10-31T06:37:24;11.20;;;9.27;;
1082;SDS011;530;51.448;7.238;2023-10-31T06:39:49;10.53;;;9.17;;
1082;SDS011;530;51.448;7.238;2023-10-31T06:42:15;11.40;;;9.87;;
1082;SDS011;530;51.448;7.238;2023-10-31T06:44:41;12.03;;;10.13;;
1082;SDS011;530;51.448;7.238;2023-10-31T06:47:06;9.40;;;8.40;;
1082;SDS011;530;51.448;7.238;2023-10-31T06:49:32;10.30;;;9.30;;
1082;SDS011;530;51.448;7.238;2023-10-31T06:51:58;10.07;;;9.00;;
1082;SDS011;530;51.448;7.238;2023-10-31T06:54:23;10.23;;;9.17;;
1082;SDS011;530;51.448;7.238;2023-10-31T06:56:49;11.83;;;9.17;;
1082;SDS011;530;51.448;7.238;2023-10-31T06:59:14;10.63;;;9.50;;
1082;SDS011;530;51.448;7.238;2023-10-31T07:01:40;10.53;;;9.50;;
1082;SDS011;530;51.448;7.238;2023-10-31T07:04:06;9.20;;;8.27;;
1082;SDS011;530;51.448;7.238;2023-10-31T07:06:32;9.73;;;8.47;;
1082;SDS011;530;51.448;7.238;2023-10-31T07:08:57;8.43;;;7.63;;
1082;SDS011;530;51.448;7.238;2023-10-31T07:11:25;13.37;;;8.83;;
1082;SDS011;530;51.448;7.238;2023-10-31T07:13:51;9.20;;;8.20;;
1082;SDS011;530;51.448;7.238;2023-10-31T07:16:16;9.23;;;8.23;;
1082;SDS011;530;51.448;7.238;2023-10-31T07:18:42;9.70;;;8.77;;
1082;SDS011;530;51.448;7.238;2023-10-31T07:21:07;8.37;;;7.57;;
1082;SDS011;530;51.448;7.238;2023-10-31T07:23:33;9.67;;;8.77;;
1082;SDS011;530;51.448;7.238;2023-10-31T07:25:59;10.07;;;9.10;;
1082;SDS011;530;51.448;7.238;2023-10-31T07:28:24;9.50;;;8.60;;
1082;SDS011;530;51.448;7.238;2023-10-31T07:30:50;11.70;;;9.00;;
1082;SDS011;530;51.448;7.238;2023-10-31T07:33:16;10.63;;;8.20;;
1082;SDS011;530;51.448;7.238;2023-10-31T07:35:41;8.60;;;7.43;;
1082;SDS011;530;51.448;7.238;2023-10-31T07:38:07;9.23;;;8.33;;
1082;SDS011;530;51.448;7.238;2023-10-31T07:40:33;7.80;;;7.00;;
1082;SDS011;530;51.448;7.238;2023-10-31T07:42:58;8.83;;;7.77;;
1082;SDS011;530;51.448;7.238;2023-10-31T07:45:24;8.53;;;7.60;;
1082;SDS011;530;51.448;7.238;2023-10-31T07:47:49;7.80;;;7.10;;
1082;SDS011;530;51.448;7.238;2023-10-31T07:50:15;8.80;;;7.90;;
1082;SDS011;530;51.448;7.238;2023-10-31T07:52:41;7.17;;;6.57;;
1082;SDS011;530;51.448;7.238;2023-10-31T07:55:08;9.40;;;8.50;;
1082;SDS011;530;51.448;7.238;2023-10-31T07:57:36;8.30;;;7.50;;
1082;SDS011;530;51.448;7.238;2023-10-31T08:00:02;8.60;;;7.10;;
1082;SDS011;530;51.448;7.238;2023-10-31T08:02:28;8.23;;;7.43;;
1082;SDS011;530;51.448;7.238;2023-10-31T08:04:53;7.97;;;7.17;;
1082;SDS011;530;51.448;7.238;2023-10-31T08:07:19;10.07;;;9.10;;
1082;SDS011;530;51.448;7.238;2023-10-31T08:09:45;8.53;;;7.67;;
1082;SDS011;530;51.448;7.238;2023-10-31T08:12:10;10.03;;;9.03;;
1082;SDS011;530;51.448;7.238;2023-10-31T08:14:36;10.17;;;8.67;;
1082;SDS011;530;51.448;7.238;2023-10-31T08:17:01;10.90;;;9.50;;
1082;SDS011;530;51.448;7.238;2023-10-31T08:19:27;10.70;;;9.43;;
1082;SDS011;530;51.448;7.238;2023-10-31T08:21:53;11.47;;;9.20;;
1082;SDS011;530;51.448;7.238;2023-10-31T08:24:18;10.20;;;9.10;;
1082;SDS011;530;51.448;7.238;2023-10-31T08:26:44;10.93;;;9.67;;
1082;SDS011;530;51.448;7.238;2023-10-31T08:29:10;11.23;;;10.03;;
1082;SDS011;530;51.448;7.238;2023-10-31T08:31:35;10.77;;;9.77;;
1082;SDS011;530;51.448;7.238;2023-10-31T08:34:01;10.03;;;9.13;;
1082;SDS011;530;51.448;7.238;2023-10-31T08:36:27;9.30;;;8.40;;
1082;SDS011;530;51.448;7.238;2023-10-31T08:38:53;9.20;;;8.30;;
1082;SDS011;530;51.448;7.238;2023-10-31T08:41:19;9.77;;;8.90;;
1082;SDS011;530;51.448;7.238;2023-10-31T08:43:45;8.90;;;8.10;;
1082;SDS011;530;51.448;7.238;2023-10-31T08:46:11;9.60;;;8.60;;
1082;SDS011;530;51.448;7.238;2023-10-31T08:48:38;9.63;;;8.70;;
1082;SDS011;530;51.448;7.238;2023-10-31T08:51:04;9.33;;;8.43;;
1082;SDS011;530;51.448;7.238;2023-10-31T08:53:29;10.90;;;9.23;;
1082;SDS011;530;51.448;7.238;2023-10-31T08:55:55;9.37;;;8.37;;
1082;SDS011;530;51.448;7.238;2023-10-31T08:58:21;9.27;;;8.27;;
1082;SDS011;530;51.448;7.238;2023-10-31T09:00:47;10.13;;;9.00;;
1082;SDS011;530;51.448;7.238;2023-10-31T09:03:13;8.97;;;8.03;;
1082;SDS011;530;51.448;7.238;2023-10-31T09:05:39;9.00;;;8.20;;
1082;SDS011;530;51.448;7.238;2023-10-31T09:08:05;9.40;;;8.07;;
1082;SDS011;530;51.448;7.238;2023-10-31T09:10:32;7.90;;;7.20;;
1082;SDS011;530;51.448;7.238;2023-10-31T09:12:58;9.47;;;8.57;;
1082;SDS011;530;51.448;7.238;2023-10-31T09:15:24;8.80;;;8.00;;
1082;SDS011;530;51.448;7.238;2023-10-31T09:17:50;7.40;;;6.80;;
1082;SDS011;530;51.448;7.238;2023-10-31T09:20:15;8.10;;;7.10;;
1082;SDS011;530;51.448;7.238;2023-10-31T09:22:41;8.17;;;7.37;;
1082;SDS011;530;51.448;7.238;2023-10-31T09:25:07;7.47;;;6.77;;
1082;SDS011;530;51.448;7.238;2023-10-31T09:27:32;7.37;;;6.50;;
1082;SDS011;530;51.448;7.238;2023-10-31T09:29:58;9.73;;;6.47;;
1082;SDS011;530;51.448;7.238;2023-10-31T09:32:24;6.57;;;5.97;;
1082;SDS011;530;51.448;7.238;2023-10-31T09:34:49;6.60;;;5.90;;
1082;SDS011;530;51.448;7.238;2023-10-31T09:37:15;6.00;;;5.40;;
1082;SDS011;530;51.448;7.238;2023-10-31T09:39:41;7.80;;;5.60;;
1082;SDS011;530;51.448;7.238;2023-10-31T09:42:07;6.27;;;5.67;;
1082;SDS011;530;51.448;7.238;2023-10-31T09:44:33;7.77;;;6.70;;
1082;SDS011;530;51.448;7.238;2023-10-31T09:46:59;6.33;;;5.73;;
1082;SDS011;530;51.448;7.238;2023-10-31T09:49:26;6.47;;;5.83;;
1082;SDS011;530;51.448;7.238;2023-10-31T09:51:53;7.57;;;6.77;;
1082;SDS011;530;51.448;7.238;2023-10-31T09:54:19;6.13;;;5.23;;
1082;SDS011;530;51.448;7.238;2023-10-31T09:56:46;6.90;;;6.20;;
1082;SDS011;530;51.448;7.238;2023-10-31T09:59:13;7.50;;;6.20;;
1082;SDS011;530;51.448;7.238;2023-10-31T10:01:40;6.33;;;5.73;;
1082;SDS011;530;51.448;7.238;2023-10-31T10:04:07;7.87;;;5.50;;
1082;SDS011;530;51.448;7.238;2023-10-31T10:06:32;7.93;;;6.50;;
1082;SDS011;530;51.448;7.238;2023-10-31T10:08:58;6.70;;;5.43;;
1082;SDS011;530;51.448;7.238;2023-10-31T10:11:24;5.77;;;5.27;;
1082;SDS011;530;51.448;7.238;2023-10-31T10:13:53;6.50;;;5.90;;
1082;SDS011;530;51.448;7.238;2023-10-31T10:16:32;7.23;;;5.70;;
1082;SDS011;530;51.448;7.238;2023-10-31T10:19:14;7.30;;;6.30;;
1082;SDS011;530;51.448;7.238;2023-10-31T10:21:53;7.37;;;6.17;;
1082;SDS011;530;51.448;7.238;2023-10-31T10:24:23;8.60;;;5.77;;
1082;SDS011;530;51.448;7.238;2023-10-31T10:26:49;7.50;;;6.70;;
1082;SDS011;530;51.448;7.238;2023-10-31T10:29:16;6.27;;;5.67;;
1082;SDS011;530;51.448;7.238;2023-10-31T10:31:42;8.30;;;6.33;;
1082;SDS011;530;51.448;7.238;2023-10-31T10:34:12;6.67;;;6.07;;
1082;SDS011;530;51.448;7.238;2023-10-31T10:36:39;7.03;;;5.63;;
1082;SDS011;530;51.448;7.238;2023-10-31T10:39:04;7.37;;;6.40;;
1082;SDS011;530;51.448;7.238;2023-10-31T10:41:33;7.40;;;6.70;;
1082;SDS011;530;51.448;7.238;2023-10-31T10:44:04;7.40;;;6.70;;
1082;SDS011;530;51.448;7.238;2023-10-31T10:46:34;7.40;;;6.50;;
1082;SDS011;530;51.448;7.238;2023-10-31T10:49:04;7.13;;;5.70;;
1082;SDS011;530;51.448;7.238;2023-10-31T10:54:58;6.47;;;5.87;;
1082;SDS011;530;51.448;7.238;2023-10-31T11:00:13;7.77;;;6.10;;
1082;SDS011;530;51.448;7.238;2023-10-31T11:02:40;6.10;;;5.50;;
1082;SDS011;530;51.448;7.238;2023-10-31T11:05:09;7.40;;;6.47;;
1082;SDS011;530;51.448;7.238;2023-10-31T11:07:36;7.27;;;6.30;;
1082;SDS011;530;51.448;7.238;2023-10-31T11:10:03;7.40;;;6.20;;
1082;SDS011;530;51.448;7.238;2023-10-31T11:12:30;6.50;;;5.40;;
1082;SDS011;530;51.448;7.238;2023-10-31T11:14:59;6.63;;;5.73;;
1082;SDS011;530;51.448;7.238;2023-10-31T11:17:28;6.20;;;5.60;;
1082;SDS011;530;51.448;7.238;2023-10-31T11:19:57;6.53;;;5.10;;
1082;SDS011;530;51.448;7.238;2023-10-31T11:22:24;6.43;;;5.83;;
1082;SDS011;530;51.448;7.238;2023-10-31T11:24:49;8.40;;;5.43;;
1082;SDS011;530;51.448;7.238;2023-10-31T11:27:16;7.60;;;5.50;;
1082;SDS011;530;51.448;7.238;2023-10-31T11:29:43;6.10;;;5.50;;
1082;SDS011;530;51.448;7.238;2023-10-31T11:32:10;7.17;;;4.47;;
1082;SDS011;530;51.448;7.238;2023-10-31T11:34:39;4.77;;;4.23;;
1082;SDS011;530;51.448;7.238;2023-10-31T11:37:22;5.00;;;4.50;;
1082;SDS011;530;51.448;7.238;2023-10-31T11:42:43;10.17;;;4.33;;
1082;SDS011;530;51.448;7.238;2023-10-31T11:45:11;5.10;;;3.90;;
1082;SDS011;530;51.448;7.238;2023-10-31T11:47:47;4.57;;;3.93;;
1082;SDS011;530;51.448;7.238;2023-10-31T11:50:14;5.47;;;3.60;;
1082;SDS011;530;51.448;7.238;2023-10-31T11:52:40;4.57;;;3.63;;
1082;SDS011;530;51.448;7.238;2023-10-31T11:55:09;4.03;;;3.73;;
1082;SDS011;530;51.448;7.238;2023-10-31T11:57:36;3.80;;;3.40;;
1082;SDS011;530;51.448;7.238;2023-10-31T12:00:02;3.90;;;3.50;;
1082;SDS011;530;51.448;7.238;2023-10-31T12:02:29;5.40;;;4.33;;
1082;SDS011;530;51.448;7.238;2023-10-31T12:05:08;3.67;;;3.37;;
1082;SDS011;530;51.448;7.238;2023-10-31T12:07:44;10.77;;;4.07;;
1082;SDS011;530;51.448;7.238;2023-10-31T12:10:11;5.23;;;3.57;;
1082;SDS011;530;51.448;7.238;2023-10-31T12:12:37;4.43;;;3.47;;
1082;SDS011;530;51.448;7.238;2023-10-31T12:15:06;4.20;;;3.80;;
1082;SDS011;530;51.448;7.238;2023-10-31T12:17:33;4.10;;;2.87;;
1082;SDS011;530;51.448;7.238;2023-10-31T12:20:07;3.33;;;2.40;;
1082;SDS011;530;51.448;7.238;2023-10-31T12:22:34;4.83;;;2.73;;
1082;SDS011;530;51.448;7.238;2023-10-31T12:25:01;4.10;;;3.20;;
1082;SDS011;530;51.448;7.238;2023-10-31T12:27:44;7.10;;;2.67;;
1082;SDS011;530;51.448;7.238;2023-10-31T12:30:12;3.37;;;2.90;;
1082;SDS011;530;51.448;7.238;2023-10-31T12:32:41;3.40;;;3.10;;
1082;SDS011;530;51.448;7.238;2023-10-31T12:35:11;3.23;;;2.30;;
1082;SDS011;530;51.448;7.238;2023-10-31T12:37:45;3.43;;;2.70;;
1082;SDS011;530;51.448;7.238;2023-10-31T12:40:21;2.60;;;2.10;;
1082;SDS011;530;51.448;7.238;2023-10-31T12:42:48;7.20;;;2.83;;
1082;SDS011;530;51.448;7.238;2023-10-31T12:45:15;6.33;;;2.60;;
1082;SDS011;530;51.448;7.238;2023-10-31T12:47:43;3.30;;;2.60;;
1082;SDS011;530;51.448;7.238;2023-10-31T12:50:11;2.63;;;2.10;;
1082;SDS011;530;51.448;7.238;2023-10-31T12:52:49;3.13;;;2.47;;
1082;SDS011;530;51.448;7.238;2023-10-31T12:55:22;2.70;;;2.10;;
1082;SDS011;530;51.448;7.238;2023-10-31T12:57:50;3.60;;;2.27;;
1082;SDS011;530;51.448;7.238;2023-10-31T13:00:17;5.63;;;2.17;;
1082;SDS011;530;51.448;7.238;2023-10-31T13:02:50;4.23;;;2.13;;
1082;SDS011;530;51.448;7.238;2023-10-31T13:05:27;3.47;;;2.47;;
1082;SDS011;530;51.448;7.238;2023-10-31T13:07:54;2.80;;;2.10;;
1082;SDS011;530;51.448;7.238;2023-10-31T13:10:22;2.50;;;2.30;;
1082;SDS011;530;51.448;7.238;2023-10-31T13:12:49;3.07;;;2.57;;
1082;SDS011;530;51.448;7.238;2023-10-31T13:15:16;5.40;;;2.40;;
1082;SDS011;530;51.448;7.238;2023-10-31T13:17:43;2.10;;;1.73;;
1082;SDS011;530;51.448;7.238;2023-10-31T13:20:10;4.60;;;2.67;;
1082;SDS011;530;51.448;7.238;2023-10-31T13:22:37;4.93;;;2.47;;
1082;SDS011;530;51.448;7.238;2023-10-31T13:25:04;4.17;;;2.30;;
1082;SDS011;530;51.448;7.238;2023-10-31T13:27:43;6.03;;;2.20;;
1082;SDS011;530;51.448;7.238;2023-10-31T13:30:10;5.17;;;2.07;;
1082;SDS011;530;51.448;7.238;2023-10-31T13:32:37;2.80;;;2.40;;
1082;SDS011;530;51.448;7.238;2023-10-31T13:35:03;3.00;;;2.30;;
1082;SDS011;530;51.448;7.238;2023-10-31T13:37:30;2.60;;;1.90;;
1082;SDS011;530;51.448;7.238;2023-10-31T13:39:56;5.50;;;2.60;;
1082;SDS011;530;51.448;7.238;2023-10-31T13:42:21;4.47;;;2.40;;
1082;SDS011;530;51.448;7.238;2023-10-31T13:44:47;4.40;;;2.40;;
1082;SDS011;530;51.448;7.238;2023-10-31T13:47:13;2.60;;;2.40;;
1082;SDS011;530;51.448;7.238;2023-10-31T13:49:39;2.07;;;1.87;;
1082;SDS011;530;51.448;7.238;2023-10-31T13:52:05;3.70;;;2.17;;
1082;SDS011;530;51.448;7.238;2023-10-31T13:54:31;3.10;;;2.47;;
1082;SDS011;530;51.448;7.238;2023-10-31T13:56:57;2.83;;;2.40;;
1082;SDS011;530;51.448;7.238;2023-10-31T13:59:23;2.30;;;1.93;;
1082;SDS011;530;51.448;7.238;2023-10-31T14:01:49;2.90;;;2.10;;
1082;SDS011;530;51.448;7.238;2023-10-31T14:04:15;3.20;;;2.60;;
1082;SDS011;530;51.448;7.238;2023-10-31T14:06:42;2.23;;;2.03;;
1082;SDS011;530;51.448;7.238;2023-10-31T14:09:08;2.63;;;2.10;;
1082;SDS011;530;51.448;7.238;2023-10-31T14:11:37;3.90;;;2.40;;
1082;SDS011;530;51.448;7.238;2023-10-31T14:14:03;1.93;;;1.80;;
1082;SDS011;530;51.448;7.238;2023-10-31T14:16:34;3.57;;;2.20;;
1082;SDS011;530;51.448;7.238;2023-10-31T14:19:00;2.30;;;2.07;;
1082;SDS011;530;51.448;7.238;2023-10-31T14:21:27;2.23;;;1.90;;
1082;SDS011;530;51.448;7.238;2023-10-31T14:23:53;2.70;;;2.50;;
1082;SDS011;530;51.448;7.238;2023-10-31T14:26:22;3.43;;;2.30;;
1082;SDS011;530;51.448;7.238;2023-10-31T14:28:48;3.60;;;2.53;;
1082;SDS011;530;51.448;7.238;2023-10-31T14:31:15;2.93;;;2.67;;
1082;SDS011;530;51.448;7.238;2023-10-31T14:33:41;4.17;;;2.83;;
1082;SDS011;530;51.448;7.238;2023-10-31T14:36:09;3.87;;;2.47;;
1082;SDS011;530;51.448;7.238;2023-10-31T14:38:36;2.90;;;2.70;;
1082;SDS011;530;51.448;7.238;2023-10-31T14:41:02;3.30;;;2.23;;
1082;SDS011;530;51.448;7.238;2023-10-31T14:43:28;2.93;;;2.27;;
1082;SDS011;530;51.448;7.238;2023-10-31T14:45:55;4.00;;;2.67;;
1082;SDS011;530;51.448;7.238;2023-10-31T14:48:21;3.07;;;2.43;;
1082;SDS011;530;51.448;7.238;2023-10-31T14:50:47;3.27;;;2.57;;
1082;SDS011;530;51.448;7.238;2023-10-31T14:53:13;3.60;;;2.70;;
1082;SDS011;530;51.448;7.238;2023-10-31T14:55:40;3.90;;;2.27;;
1082;SDS011;530;51.448;7.238;2023-10-31T14:58:05;2.50;;;2.00;;
1082;SDS011;530;51.448;7.238;2023-10-31T15:00:33;2.50;;;2.13;;
1082;SDS011;530;51.448;7.238;2023-10-31T15:02:59;4.07;;;3.10;;
1082;SDS011;530;51.448;7.238;2023-10-31T15:05:25;2.47;;;2.27;;
1082;SDS011;530;51.448;7.238;2023-10-31T15:07:51;4.20;;;2.33;;
1082;SDS011;530;51.448;7.238;2023-10-31T15:10:18;7.30;;;2.47;;
1082;SDS011;530;51.448;7.238;2023-10-31T15:12:47;5.23;;;2.37;;
1082;SDS011;530;51.448;7.238;2023-10-31T15:15:16;3.40;;;2.43;;
1082;SDS011;530;51.448;7.238;2023-10-31T15:17:42;3.60;;;2.30;;
1082;SDS011;530;51.448;7.238;2023-10-31T15:20:08;2.37;;;2.17;;
1082;SDS011;530;51.448;7.238;2023-10-31T15:22:40;3.47;;;2.13;;
1082;SDS011;530;51.448;7.238;2023-10-31T15:25:08;2.90;;;2.57;;
1082;SDS011;530;51.448;7.238;2023-10-31T15:27:34;2.80;;;2.50;;
1082;SDS011;530;51.448;7.238;2023-10-31T15:30:00;2.60;;;2.20;;
1082;SDS011;530;51.448;7.238;2023-10-31T15:32:26;2.93;;;2.10;;
1082;SDS011;530;51.448;7.238;2023-10-31T15:34:51;3.20;;;2.27;;